Time;durP1;ratioP1;P1;durP2;ratioP2;P2;SDS_P1;SDS_P2;PMS_P1;PMS_P2;Temp;Humidity;BMP_temperature;BMP_pressure;BME280_temperature;BME280_humidity;BME280_pressure;Samples;Min_cycle;Max_cycle;Signal;HPM_P1;HPM_P2
2021/06/06 00:02:28;;;;;;;0.50;0.40;;;22.00;61.90;;;;;;5168292;27;20525;-41
2021/06/06 00:04:58;;;;;;;2.50;0.50;;;21.90;61.40;;;;;;5168446;27;20448;-40
2021/06/06 00:07:29;;;;;;;0.60;0.47;;;21.80;63.30;;;;;;5168718;27;20429;-40
2021/06/06 00:09:59;;;;;;;0.73;0.60;;;21.70;62.70;;;;;;5168204;27;20653;-40
2021/06/06 00:12:30;;;;;;;0.87;0.40;;;21.60;62.70;;;;;;5168020;27;20455;-42
2021/06/06 00:15:01;;;;;;;0.53;0.43;;;21.70;64.10;;;;;;5168482;27;20410;-41
2021/06/06 00:17:33;;;;;;;0.90;0.33;;;21.90;62.60;;;;;;5167128;27;20414;-41
2021/06/06 00:20:05;;;;;;;0.60;0.50;;;21.90;61.10;;;;;;5167142;27;20475;-41
2021/06/06 00:22:36;;;;;;;1.00;0.30;;;21.80;61.40;;;;;;5167324;27;20448;-41
2021/06/06 00:25:11;;;;;;;0.87;0.27;;;21.60;61.00;;;;;;5167830;27;20882;-40
2021/06/06 00:27:42;;;;;;;2.30;0.40;;;21.40;61.60;;;;;;5167163;27;20409;-41
2021/06/06 00:30:13;;;;;;;0.40;0.40;;;21.50;61.20;;;;;;5167966;27;20432;-40
2021/06/06 00:32:46;;;;;;;0.90;0.63;;;21.60;62.20;;;;;;5167119;27;20448;-40
2021/06/06 00:35:16;;;;;;;1.50;0.53;;;21.20;63.20;;;;;;5167809;27;20528;-40
2021/06/06 00:37:47;;;;;;;0.70;0.50;;;20.90;63.90;;;;;;5167752;27;20826;-40
2021/06/06 00:40:21;;;;;;;0.90;0.60;;;20.80;62.90;;;;;;5167695;27;20483;-40
2021/06/06 00:42:52;;;;;;;2.03;0.57;;;20.50;64.20;;;;;;5158394;27;20406;-41
2021/06/06 00:45:28;;;;;;;0.80;0.43;;;20.30;64.70;;;;;;5163529;27;20407;-41
2021/06/06 00:48:00;;;;;;;1.47;0.67;;;20.20;66.10;;;;;;5165550;27;20474;-42
2021/06/06 00:50:34;;;;;;;0.70;0.57;;;20.00;67.00;;;;;;5166461;27;20563;-40
2021/06/06 00:53:08;;;;;;;0.70;0.60;;;20.00;68.00;;;;;;5167089;27;20443;-41
2021/06/06 00:55:39;;;;;;;0.70;0.50;;;19.80;68.20;;;;;;5167089;27;20415;-41
2021/06/06 00:58:12;;;;;;;1.07;0.80;;;19.70;68.40;;;;;;5166709;27;20411;-41
2021/06/06 01:00:47;;;;;;;1.03;0.70;;;19.60;68.70;;;;;;5167322;27;20457;-41
2021/06/06 01:03:22;;;;;;;1.30;0.60;;;19.50;70.20;;;;;;5166615;27;20454;-41
2021/06/06 01:05:57;;;;;;;1.13;0.67;;;19.40;69.30;;;;;;5167368;27;20475;-41
2021/06/06 01:08:32;;;;;;;0.80;0.47;;;19.40;69.80;;;;;;5167411;27;20443;-41
2021/06/06 01:11:07;;;;;;;1.70;1.40;;;19.40;68.30;;;;;;5166262;27;20458;-41
2021/06/06 01:13:42;;;;;;;1.30;1.20;;;19.20;68.50;;;;;;5165865;27;20448;-41
2021/06/06 01:16:17;;;;;;;1.33;1.00;;;19.20;68.50;;;;;;5166621;27;20447;-40
2021/06/06 01:18:51;;;;;;;1.03;0.73;;;19.30;68.20;;;;;;5166926;27;20572;-40
2021/06/06 01:21:32;;;;;;;6.57;5.97;;;19.20;69.10;;;;;;5165496;27;20572;-41
2021/06/06 01:24:19;;;;;;;10.27;9.40;;;19.10;69.40;;;;;;5158147;27;20451;-41
2021/06/06 01:26:54;;;;;;;7.67;6.77;;;19.10;69.40;;;;;;5165152;27;20451;-40
2021/06/06 01:29:34;;;;;;;2.30;1.40;;;19.10;69.40;;;;;;5166457;27;20470;-40
2021/06/06 01:32:10;;;;;;;1.13;0.90;;;19.20;69.80;;;;;;5165899;27;20429;-41
2021/06/06 01:34:43;;;;;;;1.00;0.50;;;19.40;68.50;;;;;;5166216;27;20930;-40
2021/06/06 01:37:17;;;;;;;1.50;0.53;;;19.30;67.60;;;;;;5149716;27;20422;-41
2021/06/06 01:39:54;;;;;;;0.67;0.50;;;19.40;64.60;;;;;;5154609;27;20813;-41
2021/06/06 01:42:29;;;;;;;1.23;0.70;;;19.40;65.70;;;;;;5165396;27;20482;-41
2021/06/06 01:45:03;;;;;;;1.57;0.90;;;19.60;66.90;;;;;;5165842;27;20447;-41
2021/06/06 01:47:34;;;;;;;0.97;0.60;;;19.70;67.50;;;;;;5165663;27;20483;-40
2021/06/06 01:50:08;;;;;;;1.20;0.60;;;19.60;67.90;;;;;;5165315;27;20423;-40
2021/06/06 01:52:40;;;;;;;0.50;0.50;;;19.60;67.20;;;;;;5166374;27;20423;-41
2021/06/06 01:55:16;;;;;;;0.80;0.40;;;19.40;67.80;;;;;;5165896;27;20467;-41
2021/06/06 01:57:49;;;;;;;0.60;0.50;;;19.40;67.60;;;;;;5163270;27;20443;-41
2021/06/06 02:00:30;;;;;;;1.33;0.87;;;19.40;68.10;;;;;;5164082;27;20567;-41
2021/06/06 02:03:00;;;;;;;0.50;0.50;;;19.40;66.10;;;;;;5163735;27;21164;-41
2021/06/06 02:05:31;;;;;;;0.60;0.50;;;19.30;67.40;;;;;;5165555;27;20430;-41
2021/06/06 02:08:04;;;;;;;0.70;0.43;;;19.30;66.40;;;;;;5165427;27;20916;-39
2021/06/06 02:10:42;;;;;;;0.90;0.50;;;19.10;67.30;;;;;;5165809;27;20467;-41
2021/06/06 02:13:17;;;;;;;0.60;0.60;;;19.00;67.60;;;;;;5164985;27;20415;-41
2021/06/06 02:15:51;;;;;;;1.70;0.90;;;18.80;67.40;;;;;;5165321;27;20515;-41
2021/06/06 02:18:21;;;;;;;0.90;0.50;;;18.70;67.60;;;;;;5165191;27;20447;-41
2021/06/06 02:20:52;;;;;;;0.50;0.50;;;18.60;67.70;;;;;;5164871;27;20511;-41
2021/06/06 02:23:25;;;;;;;0.63;0.63;;;18.60;67.00;;;;;;5164684;27;20444;-41
2021/06/06 02:26:03;;;;;;;1.87;0.80;;;18.20;67.40;;;;;;5164767;27;20490;-41
2021/06/06 02:28:41;;;;;;;0.93;0.73;;;18.10;68.10;;;;;;5164714;27;20448;-41
2021/06/06 02:31:17;;;;;;;0.90;0.80;;;18.00;68.80;;;;;;5161709;27;20523;-41
2021/06/06 02:33:58;;;;;;;3.13;0.90;;;17.90;69.60;;;;;;5164726;27;20451;-41
2021/06/06 02:36:30;;;;;;;1.10;1.00;;;17.70;69.90;;;;;;5164589;27;20534;-42
2021/06/06 02:39:07;;;;;;;1.43;1.07;;;17.70;71.50;;;;;;5157165;27;20492;-41
2021/06/06 02:41:45;;;;;;;2.43;1.00;;;17.70;70.70;;;;;;5164254;27;20503;-42
2021/06/06 02:44:21;;;;;;;1.00;0.90;;;17.70;70.10;;;;;;5165354;27;20475;-41
2021/06/06 02:46:53;;;;;;;1.13;0.90;;;17.50;69.70;;;;;;5164994;27;20486;-41
2021/06/06 02:49:26;;;;;;;1.97;1.00;;;17.20;70.80;;;;;;5163983;27;20895;-41
2021/06/06 02:52:01;;;;;;;2.07;0.87;;;17.20;71.00;;;;;;5163985;27;20491;-41
2021/06/06 02:54:37;;;;;;;1.23;0.87;;;17.00;71.80;;;;;;5149422;27;20446;-42
2021/06/06 02:57:12;;;;;;;1.17;0.97;;;16.80;73.20;;;;;;5164257;27;20490;-41
2021/06/06 02:59:48;;;;;;;2.60;1.10;;;16.70;72.90;;;;;;5164872;27;20471;-41
2021/06/06 03:02:24;;;;;;;2.50;1.53;;;16.80;71.30;;;;;;5164541;27;20474;-42
2021/06/06 03:04:57;;;;;;;0.67;0.67;;;16.60;70.90;;;;;;5164429;27;20830;-41
2021/06/06 03:07:32;;;;;;;1.63;0.90;;;16.60;71.80;;;;;;5164735;27;20519;-42
2021/06/06 03:10:04;;;;;;;1.40;1.20;;;16.50;71.90;;;;;;5164511;27;20875;-41
2021/06/06 03:12:38;;;;;;;1.50;1.10;;;16.50;71.40;;;;;;5147341;27;20422;-41
2021/06/06 03:15:11;;;;;;;2.57;1.00;;;16.40;70.90;;;;;;5164541;27;20495;-41
2021/06/06 03:17:44;;;;;;;1.67;0.90;;;16.20;70.90;;;;;;5157554;27;20467;-42
2021/06/06 03:20:18;;;;;;;2.60;0.70;;;15.90;70.90;;;;;;5164309;27;20525;-41
2021/06/06 03:22:50;;;;;;;1.13;0.80;;;15.90;73.00;;;;;;5163982;27;20452;-41
2021/06/06 03:25:32;;;;;;;5.33;1.40;;;15.90;73.40;;;;;;5164535;27;20619;-41
2021/06/06 03:28:05;;;;;;;1.50;0.90;;;15.80;74.40;;;;;;5160117;27;20497;-42
2021/06/06 03:30:38;;;;;;;2.53;0.90;;;15.70;74.50;;;;;;5158721;27;20779;-41
2021/06/06 03:33:13;;;;;;;0.97;0.87;;;15.60;74.80;;;;;;5154026;27;20448;-42
2021/06/06 03:35:43;;;;;;;1.43;0.80;;;15.50;75.60;;;;;;5155008;27;20537;-42
2021/06/06 03:38:19;;;;;;;1.47;0.97;;;15.50;76.70;;;;;;5159583;27;20468;-41
2021/06/06 03:40:50;;;;;;;1.97;1.10;;;15.40;77.20;;;;;;5160142;27;20486;-41
2021/06/06 03:43:22;;;;;;;1.17;0.97;;;15.40;78.00;;;;;;5166141;27;20455;-41
2021/06/06 03:45:53;;;;;;;2.00;1.00;;;15.30;79.40;;;;;;5162371;27;20466;-42
2021/06/06 03:48:23;;;;;;;3.50;1.07;;;15.20;80.20;;;;;;5160293;27;20436;-41
2021/06/06 03:50:54;;;;;;;1.87;1.10;;;15.10;80.60;;;;;;5159279;27;20782;-42
2021/06/06 03:53:26;;;;;;;3.27;0.90;;;15.10;81.80;;;;;;5166020;27;20588;-42
2021/06/06 03:55:56;;;;;;;2.07;1.10;;;15.00;81.10;;;;;;5167732;27;20474;-43
2021/06/06 03:58:28;;;;;;;1.00;1.00;;;14.90;81.70;;;;;;5166899;27;20472;-42
2021/06/06 04:00:59;;;;;;;3.60;1.20;;;14.80;82.60;;;;;;5167984;27;20546;-41
2021/06/06 04:03:30;;;;;;;0.87;0.70;;;14.80;82.30;;;;;;5153748;27;20445;-41
2021/06/06 04:06:01;;;;;;;2.40;1.13;;;14.70;83.70;;;;;;5166922;27;20463;-41
2021/06/06 04:08:32;;;;;;;2.43;1.00;;;14.60;84.10;;;;;;5168428;27;20814;-41
2021/06/06 04:11:02;;;;;;;1.63;1.27;;;14.50;85.20;;;;;;5167471;27;20922;-41
2021/06/06 04:13:35;;;;;;;2.13;1.27;;;14.40;86.20;;;;;;5168106;27;20467;-42
2021/06/06 04:16:06;;;;;;;1.27;0.80;;;14.40;86.80;;;;;;5167900;27;20474;-42
2021/06/06 04:18:37;;;;;;;1.00;0.80;;;14.40;87.30;;;;;;5167758;27;20492;-42
2021/06/06 04:21:10;;;;;;;2.30;1.00;;;14.30;87.40;;;;;;5166958;27;20475;-42
2021/06/06 04:23:40;;;;;;;3.53;1.30;;;14.20;88.10;;;;;;5167522;27;20486;-42
2021/06/06 04:26:11;;;;;;;2.40;2.20;;;14.10;90.00;;;;;;5166415;27;20495;-42
2021/06/06 04:28:43;;;;;;;1.83;1.30;;;14.10;90.50;;;;;;5167753;27;20782;-42
2021/06/06 04:31:14;;;;;;;3.30;1.40;;;14.10;91.10;;;;;;5166929;27;20464;-42
2021/06/06 04:33:45;;;;;;;2.57;1.30;;;14.00;91.80;;;;;;5167192;27;20493;-42
2021/06/06 04:36:16;;;;;;;1.33;1.20;;;13.90;92.00;;;;;;5166548;27;20455;-42
2021/06/06 04:38:48;;;;;;;2.07;1.33;;;13.90;92.50;;;;;;5167579;27;20479;-42
2021/06/06 04:41:37;;;;;;;3.77;1.70;;;13.90;93.00;;;;;;5166762;27;20497;-41
2021/06/06 04:44:09;;;;;;;1.80;1.70;;;13.90;92.90;;;;;;5151706;27;20544;-41
2021/06/06 04:46:39;;;;;;;2.50;1.67;;;13.90;93.10;;;;;;5167151;27;20519;-43
2021/06/06 04:49:10;;;;;;;1.50;1.40;;;13.90;93.30;;;;;;5167643;27;20459;-42
2021/06/06 04:51:40;;;;;;;5.57;2.23;;;13.90;93.60;;;;;;5166803;27;20447;-42
2021/06/06 04:54:11;;;;;;;2.20;1.20;;;13.90;94.00;;;;;;5167220;27;20483;-42
2021/06/06 04:56:42;;;;;;;2.80;1.50;;;14.00;93.80;;;;;;5166598;27;20443;-42
2021/06/06 04:59:14;;;;;;;1.27;1.17;;;13.90;94.10;;;;;;5165593;27;20444;-41
2021/06/06 05:01:44;;;;;;;2.00;1.20;;;13.90;94.10;;;;;;5164086;27;20501;-41
2021/06/06 05:04:15;;;;;;;3.13;1.40;;;13.90;94.30;;;;;;5166761;27;20440;-41
2021/06/06 05:06:46;;;;;;;2.60;1.43;;;14.00;94.20;;;;;;5166817;27;20440;-40
2021/06/06 05:09:17;;;;;;;6.57;1.73;;;13.90;94.70;;;;;;5167081;27;20493;-41
2021/06/06 05:11:47;;;;;;;5.40;1.80;;;13.90;94.80;;;;;;5165973;27;20843;-41
2021/06/06 05:14:20;;;;;;;1.70;1.30;;;13.90;95.00;;;;;;5166404;27;20446;-41
2021/06/06 05:16:50;;;;;;;1.60;1.10;;;13.90;95.10;;;;;;5165702;27;20451;-41
2021/06/06 05:19:21;;;;;;;3.20;1.20;;;13.80;95.40;;;;;;5166779;27;20479;-41
2021/06/06 05:21:51;;;;;;;2.57;1.17;;;13.80;96.00;;;;;;5165419;27;20484;-40
2021/06/06 05:24:22;;;;;;;2.63;1.30;;;13.70;96.40;;;;;;5166513;27;20451;-41
2021/06/06 05:26:52;;;;;;;3.13;1.70;;;13.60;96.70;;;;;;5165930;27;20479;-41
2021/06/06 05:29:24;;;;;;;2.93;1.50;;;13.50;97.20;;;;;;5166301;27;20500;-41
2021/06/06 05:31:55;;;;;;;4.83;1.43;;;13.50;97.80;;;;;;5165956;27;20436;-41
2021/06/06 05:34:25;;;;;;;2.50;1.10;;;13.40;98.10;;;;;;5166713;27;20431;-41
2021/06/06 05:36:56;;;;;;;1.63;1.53;;;13.30;98.50;;;;;;5165839;27;20483;-41
2021/06/06 05:39:27;;;;;;;1.90;1.40;;;13.20;99.20;;;;;;5166431;27;20466;-42
2021/06/06 05:41:57;;;;;;;4.40;1.87;;;13.20;99.50;;;;;;5165052;27;20571;-40
2021/06/06 05:44:29;;;;;;;1.70;1.43;;;13.10;99.90;;;;;;5153551;27;20444;-40
2021/06/06 05:46:59;;;;;;;2.60;1.50;;;13.10;99.90;;;;;;5165813;27;20429;-41
2021/06/06 05:49:30;;;;;;;2.73;1.60;;;13.00;99.90;;;;;;5165829;27;20448;-41
2021/06/06 05:52:00;;;;;;;3.60;1.30;;;13.10;99.90;;;;;;5164510;27;20512;-40
2021/06/06 05:54:31;;;;;;;2.50;1.40;;;12.90;99.90;;;;;;5165559;27;20448;-40
2021/06/06 05:57:01;;;;;;;1.90;1.40;;;12.80;99.90;;;;;;5164865;27;20771;-41
2021/06/06 05:59:34;;;;;;;1.60;1.43;;;12.90;99.90;;;;;;5165369;27;20786;-40
2021/06/06 06:02:05;;;;;;;1.97;1.70;;;12.90;99.90;;;;;;5165632;27;20499;-41
2021/06/06 06:04:35;;;;;;;2.73;1.63;;;12.70;99.90;;;;;;5165181;27;20491;-41
2021/06/06 06:07:06;;;;;;;2.70;1.80;;;12.70;99.90;;;;;;5165235;27;20521;-41
2021/06/06 06:09:36;;;;;;;2.67;1.80;;;12.70;99.90;;;;;;5165735;27;20496;-41
2021/06/06 06:12:07;;;;;;;3.40;2.10;;;12.70;99.90;;;;;;5164872;27;20440;-41
2021/06/06 06:14:39;;;;;;;2.30;1.53;;;12.70;99.90;;;;;;5154935;27;20467;-40
2021/06/06 06:17:10;;;;;;;2.03;1.83;;;12.70;99.90;;;;;;5166026;27;20493;-40
2021/06/06 06:19:40;;;;;;;3.50;1.90;;;12.60;99.90;;;;;;5164551;27;20448;-41
2021/06/06 06:22:11;;;;;;;4.47;2.10;;;12.50;99.90;;;;;;5164658;27;20539;-42
2021/06/06 06:24:42;;;;;;;6.13;2.00;;;12.50;99.90;;;;;;5165244;27;20889;-41
2021/06/06 06:27:12;;;;;;;1.90;1.63;;;12.50;99.90;;;;;;5164175;27;20443;-40
2021/06/06 06:29:44;;;;;;;3.20;1.93;;;12.50;99.90;;;;;;5165992;27;20469;-41
2021/06/06 06:32:15;;;;;;;2.23;2.03;;;12.40;99.90;;;;;;5165121;27;20564;-42
2021/06/06 06:34:48;;;;;;;3.33;1.90;;;12.40;99.90;;;;;;5164291;27;20472;-41
2021/06/06 06:37:20;;;;;;;4.53;2.00;;;12.40;99.90;;;;;;5163566;27;20468;-41
2021/06/06 06:39:51;;;;;;;6.23;2.00;;;12.30;99.90;;;;;;5164402;27;20444;-41
2021/06/06 06:42:22;;;;;;;2.40;1.70;;;12.20;99.90;;;;;;5164362;27;20495;-42
2021/06/06 06:44:54;;;;;;;3.13;2.10;;;12.20;99.90;;;;;;5165172;27;20454;-41
2021/06/06 06:47:24;;;;;;;5.03;2.33;;;12.20;99.90;;;;;;5165133;27;20475;-42
2021/06/06 06:49:55;;;;;;;2.58;1.92;;;12.20;99.90;;;;;;5164416;27;20444;-42
2021/06/06 06:52:25;;;;;;;2.17;1.70;;;12.20;99.90;;;;;;5164094;27;20229;-41
2021/06/06 06:54:55;;;;;;;2.30;2.10;;;12.10;99.90;;;;;;5164972;27;20512;-40
2021/06/06 06:57:26;;;;;;;5.03;2.20;;;12.00;99.90;;;;;;5163382;27;20208;-41
2021/06/06 06:59:58;;;;;;;4.25;2.53;;;12.00;99.90;;;;;;5162564;27;20440;-40
2021/06/06 07:02:29;;;;;;;2.20;2.00;;;12.00;99.90;;;;;;5164680;27;20271;-41
2021/06/06 07:04:59;;;;;;;3.50;2.73;;;12.00;99.90;;;;;;5163981;27;20460;-41
2021/06/06 07:07:30;;;;;;;2.90;2.50;;;11.90;99.90;;;;;;5164500;27;20468;-41
2021/06/06 07:10:00;;;;;;;3.17;2.10;;;11.90;99.90;;;;;;5163498;27;20440;-41
2021/06/06 07:12:31;;;;;;;3.90;2.25;;;11.90;99.90;;;;;;5164050;27;20183;-41
2021/06/06 07:15:04;;;;;;;2.08;1.98;;;11.80;99.90;;;;;;5164765;27;20283;-41
2021/06/06 07:17:34;;;;;;;5.68;1.90;;;11.80;99.90;;;;;;5148670;27;20321;-41
2021/06/06 07:20:07;;;;;;;2.70;1.80;;;11.80;99.90;;;;;;5164743;27;20278;-41
2021/06/06 07:22:38;;;;;;;4.75;2.60;;;11.80;99.90;;;;;;5163439;27;20222;-41
2021/06/06 07:25:12;;;;;;;2.33;2.07;;;11.70;99.90;;;;;;5164998;27;20202;-41
2021/06/06 07:27:44;;;;;;;2.42;2.03;;;11.70;99.90;;;;;;5155236;27;20570;-41
2021/06/06 07:30:19;;;;;;;4.65;2.10;;;11.60;99.90;;;;;;5157880;27;20179;-41
2021/06/06 07:32:49;;;;;;;4.87;1.80;;;11.60;99.90;;;;;;5164306;27;20225;-41
2021/06/06 07:35:22;;;;;;;2.35;1.90;;;11.50;99.90;;;;;;5164607;27;20455;-41
2021/06/06 07:37:54;;;;;;;3.80;1.97;;;11.50;99.90;;;;;;5144177;28;20290;-42
2021/06/06 07:40:27;;;;;;;4.87;3.50;;;11.50;99.90;;;;;;5153328;27;20556;-41
2021/06/06 07:42:57;;;;;;;5.25;4.32;;;11.50;99.90;;;;;;5163668;27;20934;-41
2021/06/06 07:45:29;;;;;;;6.85;5.07;;;11.50;99.90;;;;;;5164846;27;20231;-42
2021/06/06 07:48:00;;;;;;;8.35;5.38;;;11.40;99.90;;;;;;5164366;27;20206;-42
2021/06/06 07:50:34;;;;;;;8.00;6.45;;;11.40;99.90;;;;;;5165116;27;20197;-41
2021/06/06 07:53:05;;;;;;;10.25;8.05;;;11.40;99.90;;;;;;5157956;27;20328;-41
2021/06/06 07:55:36;;;;;;;8.90;6.63;;;11.40;99.90;;;;;;5164174;27;20194;-41
2021/06/06 07:58:06;;;;;;;8.20;7.28;;;11.30;99.90;;;;;;5163977;27;20492;-41
2021/06/06 08:00:40;;;;;;;6.80;6.20;;;11.20;99.90;;;;;;5165245;27;20218;-40
2021/06/06 08:03:11;;;;;;;6.40;5.50;;;11.20;99.90;;;;;;5164011;27;20222;-40
2021/06/06 08:05:43;;;;;;;7.55;5.70;;;11.20;99.90;;;;;;5162045;27;20452;-41
2021/06/06 08:08:15;;;;;;;6.50;5.90;;;11.20;99.90;;;;;;5164559;27;20199;-41
2021/06/06 08:10:48;;;;;;;8.23;6.97;;;11.20;99.90;;;;;;5164069;27;20198;-40
2021/06/06 08:13:19;;;;;;;9.63;6.70;;;11.30;99.90;;;;;;5164552;27;20240;-40
2021/06/06 08:15:52;;;;;;;9.40;6.28;;;11.30;99.90;;;;;;5163904;27;20187;-41
2021/06/06 08:18:25;;;;;;;8.40;6.20;;;11.40;99.90;;;;;;5164195;27;20233;-41
2021/06/06 08:20:59;;;;;;;6.70;6.10;;;11.40;99.90;;;;;;5163878;27;20194;-41
2021/06/06 08:23:29;;;;;;;7.43;6.38;;;11.40;99.90;;;;;;5156706;27;20222;-41
2021/06/06 08:26:00;;;;;;;7.40;6.70;;;11.40;99.90;;;;;;5166700;27;20205;-40
2021/06/06 08:28:31;;;;;;;6.75;6.05;;;11.50;99.90;;;;;;5166789;27;20218;-41
2021/06/06 08:31:06;;;;;;;7.85;5.65;;;11.60;99.90;;;;;;5168039;27;20197;-40
2021/06/06 08:33:38;;;;;;;7.53;5.13;;;11.50;99.90;;;;;;5167279;27;20641;-41
2021/06/06 08:36:13;;;;;;;8.88;4.63;;;11.50;99.90;;;;;;5151465;27;20198;-41
2021/06/06 08:38:44;;;;;;;4.20;3.80;;;11.50;99.90;;;;;;5167097;27;20265;-40
2021/06/06 08:41:20;;;;;;;5.33;4.00;;;11.50;99.90;;;;;;5166516;27;20532;-41
2021/06/06 08:43:54;;;;;;;7.30;4.75;;;11.50;99.90;;;;;;5167176;27;20498;-41
2021/06/06 08:46:31;;;;;;;4.88;4.40;;;11.60;99.90;;;;;;5167517;27;20224;-40
2021/06/06 08:49:03;;;;;;;4.87;4.20;;;11.60;99.90;;;;;;5167022;27;20257;-41
2021/06/06 08:51:43;;;;;;;5.47;4.40;;;11.60;99.90;;;;;;5167077;27;20443;-41
2021/06/06 08:54:23;;;;;;;5.03;3.97;;;11.70;99.90;;;;;;5166437;27;20448;-41
2021/06/06 08:56:58;;;;;;;4.13;3.00;;;11.80;99.90;;;;;;5166393;27;20926;-41
2021/06/06 08:59:35;;;;;;;3.40;3.10;;;11.80;99.90;;;;;;5166570;27;20807;-41
2021/06/06 09:02:15;;;;;;;4.03;3.07;;;11.70;99.90;;;;;;5166929;27;20480;-41
2021/06/06 09:04:45;;;;;;;7.40;3.30;;;11.80;99.90;;;;;;5166932;27;20495;-41
2021/06/06 09:07:25;;;;;;;3.30;2.70;;;11.80;99.90;;;;;;5167038;27;20443;-40
2021/06/06 09:09:59;;;;;;;3.30;2.40;;;11.80;99.90;;;;;;5166969;27;20471;-41
2021/06/06 09:12:29;;;;;;;2.93;2.73;;;11.80;99.90;;;;;;5166325;27;20452;-41
2021/06/06 09:15:00;;;;;;;3.27;2.83;;;11.80;99.90;;;;;;5167043;27;20450;-41
2021/06/06 09:17:41;;;;;;;3.87;2.90;;;11.90;99.90;;;;;;5166785;27;20456;-41
2021/06/06 09:20:32;;;;;;;2.67;2.47;;;11.90;99.90;;;;;;5166793;27;20485;-41
2021/06/06 09:23:08;;;;;;;3.87;2.73;;;11.90;99.90;;;;;;5160936;27;20479;-41
2021/06/06 09:25:40;;;;;;;3.70;2.40;;;11.90;99.90;;;;;;5166614;27;20531;-41
2021/06/06 09:28:14;;;;;;;5.73;3.20;;;11.90;99.90;;;;;;5165845;27;20460;-41
2021/06/06 09:30:44;;;;;;;2.47;2.27;;;11.90;99.90;;;;;;5150774;27;20448;-41
2021/06/06 09:33:31;;;;;;;3.50;2.60;;;11.90;99.90;;;;;;5165036;27;20440;-41
2021/06/06 09:36:04;;;;;;;4.63;3.20;;;11.90;99.90;;;;;;5159484;27;20445;-41
2021/06/06 09:38:39;;;;;;;4.10;2.37;;;11.80;99.90;;;;;;5165896;27;20524;-41
2021/06/06 09:41:17;;;;;;;5.45;2.83;;;11.70;99.90;;;;;;5165999;27;20448;-41
2021/06/06 09:44:04;;;;;;;6.03;2.65;;;11.70;99.90;;;;;;5166434;27;20249;-42
2021/06/06 09:46:41;;;;;;;3.75;2.65;;;11.70;99.90;;;;;;5166276;27;20277;-41
2021/06/06 09:49:23;;;;;;;3.13;2.77;;;11.70;99.90;;;;;;5165360;27;20198;-42
2021/06/06 09:51:55;;;;;;;4.60;3.10;;;11.70;99.90;;;;;;5165183;27;20472;-41
2021/06/06 09:54:32;;;;;;;3.13;2.27;;;11.70;99.90;;;;;;5166181;27;20504;-41
2021/06/06 09:57:05;;;;;;;4.40;3.10;;;11.80;99.90;;;;;;5165056;27;20499;-41
2021/06/06 09:59:38;;;;;;;3.73;3.17;;;11.70;99.90;;;;;;5165202;27;20495;-41
2021/06/06 10:02:28;;;;;;;3.60;2.70;;;11.70;99.90;;;;;;5165444;27;20476;-41
2021/06/06 10:05:08;;;;;;;3.03;2.70;;;11.70;99.90;;;;;;5165409;27;20487;-41
2021/06/06 10:07:40;;;;;;;4.17;2.80;;;11.60;99.90;;;;;;5165948;27;20440;-41
2021/06/06 10:10:13;;;;;;;5.83;3.60;;;11.60;99.90;;;;;;5165987;27;20494;-41
2021/06/06 10:12:47;;;;;;;3.77;2.80;;;11.50;99.90;;;;;;5164202;27;20873;-42
2021/06/06 10:15:26;;;;;;;3.00;2.80;;;11.50;99.90;;;;;;5165947;27;20470;-41
2021/06/06 10:18:02;;;;;;;4.72;2.97;;;11.40;99.90;;;;;;5165382;27;20490;-41
2021/06/06 10:20:40;;;;;;;3.72;3.42;;;11.30;99.90;;;;;;5165446;27;20194;-41
2021/06/06 10:23:16;;;;;;;5.60;3.30;;;11.30;99.90;;;;;;5164426;27;20633;-41
2021/06/06 10:25:53;;;;;;;4.93;3.20;;;11.20;99.90;;;;;;5165138;27;20262;-41
2021/06/06 10:28:26;;;;;;;5.40;3.30;;;11.20;99.90;;;;;;5165321;27;20211;-41
2021/06/06 10:31:05;;;;;;;4.63;3.27;;;11.10;99.90;;;;;;5165010;27;20918;-41
2021/06/06 10:33:39;;;;;;;4.30;3.17;;;11.10;99.90;;;;;;5164981;27;20471;-41
2021/06/06 10:36:13;;;;;;;4.65;2.95;;;11.00;99.90;;;;;;5164780;27;20463;-41
2021/06/06 10:38:46;;;;;;;4.15;3.10;;;11.00;99.90;;;;;;5165454;27;20218;-41
2021/06/06 10:41:20;;;;;;;4.20;3.40;;;10.90;99.90;;;;;;5147640;27;20198;-41
2021/06/06 10:43:56;;;;;;;4.73;3.00;;;10.90;99.90;;;;;;5149614;27;20499;-41
2021/06/06 10:46:34;;;;;;;3.28;3.00;;;11.00;99.90;;;;;;5165050;27;20447;-41
2021/06/06 10:49:12;;;;;;;4.75;3.67;;;10.90;99.90;;;;;;5164620;27;20266;-42
2021/06/06 10:51:51;;;;;;;6.53;4.30;;;11.00;99.90;;;;;;5164556;27;20218;-41
2021/06/06 10:54:32;;;;;;;4.70;3.28;;;11.10;99.90;;;;;;5165424;27;20469;-41
2021/06/06 10:57:05;;;;;;;5.35;3.20;;;11.00;99.90;;;;;;5163797;27;20227;-42
2021/06/06 10:59:40;;;;;;;3.60;3.20;;;11.10;99.90;;;;;;5164464;27;20203;-41
2021/06/06 11:02:26;;;;;;;3.72;3.38;;;11.10;99.90;;;;;;5164760;27;20561;-42
2021/06/06 11:04:58;;;;;;;3.30;3.00;;;11.10;99.90;;;;;;5164443;27;20261;-41
2021/06/06 11:07:43;;;;;;;5.63;3.08;;;11.00;99.90;;;;;;5164532;27;20230;-41
2021/06/06 11:10:34;;;;;;;3.40;3.00;;;11.00;99.90;;;;;;5165078;27;20231;-41
2021/06/06 11:13:16;;;;;;;3.90;2.88;;;11.10;99.90;;;;;;5162348;27;20447;-40
2021/06/06 11:15:58;;;;;;;5.55;2.95;;;11.10;99.90;;;;;;5164408;27;20198;-41
2021/06/06 11:18:29;;;;;;;4.07;3.25;;;11.10;99.90;;;;;;5150736;27;20622;-42
2021/06/06 11:21:03;;;;;;;5.05;3.58;;;11.10;99.90;;;;;;5164351;27;20195;-41
2021/06/06 11:23:43;;;;;;;5.95;3.50;;;11.20;99.90;;;;;;5161589;27;20290;-41
2021/06/06 11:26:22;;;;;;;3.83;3.40;;;11.10;99.90;;;;;;5163826;27;20194;-40
2021/06/06 11:29:08;;;;;;;4.15;3.75;;;11.10;99.90;;;;;;5164628;27;20938;-40
2021/06/06 11:31:42;;;;;;;3.72;3.42;;;11.10;99.90;;;;;;5163901;27;20266;-41
2021/06/06 11:34:28;;;;;;;5.00;3.90;;;11.10;99.90;;;;;;5164233;27;20269;-42
2021/06/06 11:37:06;;;;;;;5.20;3.10;;;11.00;99.90;;;;;;5164446;27;20455;-37
2021/06/06 11:39:45;;;;;;;4.22;3.15;;;11.00;99.90;;;;;;5164994;27;20194;-41
2021/06/06 11:42:29;;;;;;;5.00;3.60;;;11.10;99.90;;;;;;5162608;27;20275;-42
2021/06/06 11:45:02;;;;;;;3.70;3.40;;;11.20;99.90;;;;;;5155231;27;20222;-42
2021/06/06 11:47:41;;;;;;;6.10;3.58;;;11.20;99.90;;;;;;5164575;27;20209;-41
2021/06/06 11:50:15;;;;;;;3.97;3.58;;;11.30;99.90;;;;;;5147942;27;20233;-41
2021/06/06 11:52:50;;;;;;;3.30;3.00;;;11.40;99.90;;;;;;5163742;27;20232;-40
2021/06/06 11:55:29;;;;;;;3.83;3.13;;;11.50;99.90;;;;;;5164659;27;20513;-40
2021/06/06 11:58:09;;;;;;;4.43;3.13;;;11.50;99.90;;;;;;5164834;27;20462;-42
2021/06/06 12:00:43;;;;;;;6.80;3.00;;;11.40;99.90;;;;;;5168339;27;20470;-41
2021/06/06 12:03:18;;;;;;;5.35;3.15;;;11.40;99.90;;;;;;5167786;27;20507;-40
2021/06/06 12:05:56;;;;;;;6.33;3.70;;;11.50;99.90;;;;;;5166330;27;20266;-41
2021/06/06 12:08:33;;;;;;;4.72;2.83;;;11.60;99.90;;;;;;5168460;27;20543;-41
2021/06/06 12:11:07;;;;;;;3.70;2.70;;;11.60;99.90;;;;;;5167293;27;20192;-40
2021/06/06 12:13:39;;;;;;;5.25;3.70;;;11.60;99.90;;;;;;5164278;27;20296;-41
2021/06/06 12:16:13;;;;;;;5.40;3.47;;;11.70;99.90;;;;;;5167735;27;20236;-41
2021/06/06 12:18:46;;;;;;;5.37;3.63;;;11.70;99.90;;;;;;5167797;27;20452;-41
2021/06/06 12:21:20;;;;;;;4.03;3.13;;;11.70;99.90;;;;;;5158133;27;20451;-40
2021/06/06 12:23:53;;;;;;;3.33;3.13;;;11.70;99.90;;;;;;5168259;27;20539;-41
2021/06/06 12:26:30;;;;;;;4.60;3.17;;;11.70;99.90;;;;;;5166903;27;20482;-40
2021/06/06 12:29:00;;;;;;;4.80;3.47;;;11.60;99.90;;;;;;5167633;27;20454;-42
2021/06/06 12:31:34;;;;;;;4.47;3.60;;;11.70;99.90;;;;;;5167496;27;20519;-41
2021/06/06 12:34:21;;;;;;;4.20;3.33;;;11.70;99.90;;;;;;5167164;27;20510;-42
2021/06/06 12:36:57;;;;;;;3.40;3.10;;;11.70;99.90;;;;;;5155251;27;20492;-42
2021/06/06 12:39:47;;;;;;;5.30;3.23;;;11.60;99.90;;;;;;5165388;27;20451;-41
2021/06/06 12:42:20;;;;;;;3.73;2.87;;;11.70;99.90;;;;;;5166841;27;20439;-42
2021/06/06 12:44:54;;;;;;;5.30;3.37;;;11.80;99.90;;;;;;5167172;27;20475;-41
2021/06/06 12:47:28;;;;;;;6.50;3.60;;;11.80;99.90;;;;;;5167534;27;20452;-41
2021/06/06 12:50:00;;;;;;;3.20;2.90;;;11.80;99.90;;;;;;5167664;27;20447;-41
2021/06/06 12:52:33;;;;;;;4.13;3.07;;;11.70;99.90;;;;;;5166212;27;20546;-41
2021/06/06 12:55:16;;;;;;;5.17;2.87;;;11.70;99.90;;;;;;5166633;27;20474;-41
2021/06/06 12:57:54;;;;;;;2.57;2.33;;;11.70;99.90;;;;;;5166837;27;20491;-41
2021/06/06 13:00:30;;;;;;;3.43;2.60;;;11.80;99.90;;;;;;5160824;27;20455;-40
2021/06/06 13:03:01;;;;;;;3.63;2.63;;;11.70;99.90;;;;;;5166899;27;20451;-41
2021/06/06 13:05:39;;;;;;;5.60;2.90;;;11.70;99.90;;;;;;5167408;27;20454;-41
2021/06/06 13:08:24;;;;;;;5.57;3.67;;;11.80;99.90;;;;;;5167378;27;20524;-42
2021/06/06 13:10:57;;;;;;;2.93;2.63;;;11.70;99.90;;;;;;5166692;27;20490;-42
2021/06/06 13:13:34;;;;;;;4.63;3.17;;;11.70;99.90;;;;;;5166985;27;21206;-42
2021/06/06 13:16:16;;;;;;;4.47;3.17;;;11.80;99.90;;;;;;5167167;27;20494;-42
2021/06/06 13:18:58;;;;;;;3.10;2.90;;;11.90;99.90;;;;;;5166554;27;20461;-42
2021/06/06 13:21:30;;;;;;;4.67;3.17;;;12.00;99.90;;;;;;5166812;27;20578;-42
2021/06/06 13:24:18;;;;;;;2.95;2.70;;;12.10;99.90;;;;;;5160890;27;20467;-42